Fort Benning, Lawson Army Airfield (KLSF)

NameLawson Army Airfield
CityFort Benning
CountryUnited States
ICAOKLSF
IATALSF
Altitude71 m
CoordinatesGoogle Map
Live Air TrafficLiveATC.net
METARKLSF 201156Z AUTO 14004KT 10SM CLR 18/18 A3003 RMK AO2 SLP173 60002 70002 T01770177 10185 20166 58003
2018-10-20 11:56:00 Wind: Southeast (140°) 2.06 m/s - Visibility: 16093.4 m - Temperature: 18 °C - Dew point: 18 °C - Humidity: 100% - Pressure: 1016.93 hPa
Statistics

The table below shows the detailed information of all flights to/from Fort Benning, Lawson Army Airfield (KLSF).